createdAt,value
2016-03-13T00:00:11.414Z,18.63
2016-03-13T00:01:11.389Z,18.93
2016-03-13T00:02:11.377Z,18.83
2016-03-13T00:03:11.379Z,18.83
2016-03-13T00:04:11.382Z,18.73
2016-03-13T00:05:11.384Z,18.44
2016-03-13T00:06:11.387Z,18.73
2016-03-13T00:07:11.390Z,18.73
2016-03-13T00:08:11.423Z,18.63
2016-03-13T00:09:11.396Z,18.82
2016-03-13T00:10:11.413Z,18.82
2016-03-13T00:11:11.401Z,18.83
2016-03-13T00:12:11.419Z,18.73
2016-03-13T00:13:11.422Z,18.82
2016-03-13T00:14:11.424Z,18.54
2016-03-13T00:15:11.426Z,18.54
2016-03-13T00:16:11.429Z,18.73
2016-03-13T00:17:11.432Z,18.73
2016-03-13T00:18:11.435Z,18.73
2016-03-13T00:19:11.454Z,18.82
2016-03-13T00:20:11.284Z,18.73
2016-03-13T00:21:11.459Z,18.73
2016-03-13T00:22:11.461Z,18.73
2016-03-13T00:23:11.464Z,18.53
2016-03-13T00:24:11.467Z,18.73
2016-03-13T00:25:11.469Z,18.63
2016-03-13T00:26:11.472Z,18.63
2016-03-13T00:27:11.475Z,18.73
2016-03-13T00:28:11.477Z,18.73
2016-03-13T00:29:11.480Z,18.73
2016-03-13T00:30:11.483Z,18.73
2016-03-13T00:31:11.502Z,18.73
2016-03-13T00:32:11.489Z,18.73
2016-03-13T00:33:11.491Z,18.63
2016-03-13T00:34:11.510Z,18.73
2016-03-13T00:35:11.512Z,18.63
2016-03-13T00:36:11.499Z,18.63
2016-03-13T00:37:11.517Z,18.73
2016-03-13T00:38:11.521Z,18.73
2016-03-13T00:39:11.527Z,18.63
2016-03-13T00:40:11.530Z,18.73
2016-03-13T00:41:11.533Z,18.63
2016-03-13T00:42:11.535Z,18.82
2016-03-13T00:43:11.554Z,18.73
2016-03-13T00:44:11.541Z,18.63
2016-03-13T00:45:11.543Z,18.73
2016-03-13T00:46:11.546Z,18.73
2016-03-13T00:47:11.548Z,18.73
2016-03-13T00:48:11.568Z,18.83
2016-03-13T00:49:11.570Z,18.73
2016-03-13T00:50:11.573Z,18.82
2016-03-13T00:51:11.576Z,18.73
2016-03-13T00:52:11.578Z,18.73
2016-03-13T00:53:11.597Z,18.73
2016-03-13T00:54:11.583Z,18.83
2016-03-13T00:55:11.586Z,18.73
2016-03-13T00:56:11.605Z,18.73
2016-03-13T00:57:11.607Z,18.73
2016-03-13T00:58:11.610Z,18.73
2016-03-13T00:59:11.597Z,18.73
2016-03-13T01:00:11.616Z,18.73
2016-03-13T01:01:11.619Z,18.73
2016-03-13T01:02:11.621Z,18.53
2016-03-13T01:03:11.624Z,18.63
2016-03-13T01:04:11.626Z,18.63
2016-03-13T01:05:11.629Z,18.53
2016-03-13T01:06:11.631Z,18.93
2016-03-13T01:07:11.635Z,18.35
2016-03-13T01:08:11.637Z,18.44
2016-03-13T01:09:11.640Z,18.93
2016-03-13T01:10:11.658Z,18.35
2016-03-13T01:11:11.646Z,18.53
2016-03-13T01:12:11.663Z,18.63
2016-03-13T01:13:11.665Z,18.44
2016-03-13T01:14:11.668Z,18.54
2016-03-13T01:15:11.671Z,18.63
2016-03-13T01:16:11.673Z,18.83
2016-03-13T01:17:11.676Z,18.83
2016-03-13T01:18:11.696Z,18.44
2016-03-13T01:19:11.698Z,18.54
2016-03-13T01:20:11.701Z,18.54
2016-03-13T01:21:11.687Z,18.83
2016-03-13T01:22:11.690Z,18.83
2016-03-13T01:23:11.692Z,18.63
2016-03-13T01:24:11.695Z,18.63
2016-03-13T01:25:11.713Z,18.44
2016-03-13T01:26:11.717Z,18.44
2016-03-13T01:27:11.719Z,18.63
2016-03-13T01:28:11.722Z,18.44
2016-03-13T01:29:11.725Z,18.54
2016-03-13T01:30:11.727Z,18.73
2016-03-13T01:31:11.730Z,18.54
2016-03-13T01:32:11.733Z,18.73
2016-03-13T01:33:11.751Z,18.83
2016-03-13T01:34:11.738Z,18.73
2016-03-13T01:35:11.740Z,18.73
2016-03-13T01:36:11.759Z,18.73
2016-03-13T01:37:11.763Z,18.83
2016-03-13T01:38:11.765Z,18.83
2016-03-13T01:39:11.768Z,18.63
2016-03-13T01:40:11.770Z,18.63
2016-03-13T01:41:11.773Z,18.63
2016-03-13T01:42:11.775Z,18.63
2016-03-13T01:43:11.778Z,18.44
2016-03-13T01:44:11.781Z,18.73
2016-03-13T01:45:11.784Z,18.63
2016-03-13T01:46:11.787Z,18.83
2016-03-13T01:47:11.789Z,18.83
2016-03-13T01:48:11.807Z,18.63
2016-03-13T01:49:11.810Z,18.26
2016-03-13T01:50:11.812Z,18.83
2016-03-13T01:51:11.815Z,18.63
2016-03-13T01:52:11.817Z,18.35
2016-03-13T01:53:11.836Z,18.83
2016-03-13T01:54:11.823Z,18.63
2016-03-13T01:55:11.825Z,18.63
2016-03-13T01:56:11.829Z,18.83
2016-03-13T01:57:11.847Z,18.73
2016-03-13T01:58:11.850Z,18.83
2016-03-13T01:59:11.852Z,18.63
2016-03-13T02:00:11.855Z,18.35
2016-03-13T02:01:11.858Z,18.63
2016-03-13T02:02:11.860Z,18.83
2016-03-13T02:03:11.863Z,18.83
2016-03-13T02:04:11.866Z,18.73
2016-03-13T02:05:11.884Z,18.26
2016-03-13T02:06:11.886Z,18.26
2016-03-13T02:07:11.889Z,18.34
2016-03-13T02:08:11.736Z,18.54
2016-03-13T02:09:11.894Z,18.82
2016-03-13T02:10:11.897Z,18.83
2016-03-13T02:11:11.900Z,18.44
2016-03-13T02:12:11.902Z,18.63
2016-03-13T02:13:11.921Z,18.44
2016-03-13T02:14:11.907Z,18.44
2016-03-13T02:15:11.911Z,18.63
2016-03-13T02:16:11.913Z,18.35
2016-03-13T02:17:11.916Z,18.35
2016-03-13T02:18:11.919Z,18.44
2016-03-13T02:19:11.921Z,18.63
2016-03-13T02:20:11.940Z,18.44
2016-03-13T02:21:11.943Z,18.63
2016-03-13T02:22:11.945Z,18.73
2016-03-13T02:23:11.792Z,18.44
2016-03-13T02:24:11.950Z,18.63
2016-03-13T02:25:11.953Z,18.73
2016-03-13T02:26:11.956Z,18.63
2016-03-13T02:27:11.959Z,18.53
2016-03-13T02:28:11.978Z,18.34
2016-03-13T02:29:11.964Z,18.73
2016-03-13T02:30:11.983Z,18.44
2016-03-13T02:31:11.969Z,18.73
2016-03-13T02:32:11.988Z,18.44
2016-03-13T02:33:11.990Z,18.53
2016-03-13T02:34:11.994Z,18.35
2016-03-13T02:35:11.997Z,18.44
2016-03-13T02:36:11.998Z,18.44
2016-03-13T02:37:12.002Z,18.53
2016-03-13T02:38:12.020Z,18.34
2016-03-13T02:39:12.007Z,18.34
2016-03-13T02:40:12.025Z,18.34
2016-03-13T02:41:12.012Z,18.34
2016-03-13T02:42:12.046Z,18.44
2016-03-13T02:43:12.033Z,18.34
2016-03-13T02:44:12.021Z,18.44
2016-03-13T02:45:12.038Z,18.44
2016-03-13T02:46:12.041Z,18.34
2016-03-13T02:47:12.043Z,18.34
2016-03-13T02:48:12.062Z,18.44
2016-03-13T02:49:12.049Z,18.44
2016-03-13T02:50:12.067Z,18.44
2016-03-13T02:51:12.054Z,18.53
2016-03-13T02:52:12.073Z,18.34
2016-03-13T02:53:12.059Z,18.26
2016-03-13T02:54:12.078Z,18.44
2016-03-13T02:55:12.097Z,18.34
2016-03-13T02:56:12.084Z,18.44
2016-03-13T02:57:12.118Z,18.44
2016-03-13T02:58:12.089Z,18.15
2016-03-13T02:59:12.108Z,18.16
2016-03-13T03:00:12.111Z,18.53
2016-03-13T03:01:12.114Z,18.44
2016-03-13T03:02:12.116Z,18.34
2016-03-13T03:03:12.119Z,18.53
2016-03-13T03:04:12.122Z,18.54
2016-03-13T03:05:12.124Z,18.15
2016-03-13T03:06:12.127Z,18.34
2016-03-13T03:07:12.129Z,18.15
2016-03-13T03:08:12.132Z,18.34
2016-03-13T03:09:12.135Z,18.34
2016-03-13T03:10:12.152Z,18.15
2016-03-13T03:11:12.140Z,18.24
2016-03-13T03:12:12.189Z,18.15
2016-03-13T03:13:12.160Z,18.15
2016-03-13T03:14:12.148Z,18.24
2016-03-13T03:15:12.166Z,18.53
2016-03-13T03:16:12.168Z,18.24
2016-03-13T03:17:12.171Z,18.63
2016-03-13T03:18:12.173Z,18.63
2016-03-13T03:19:12.176Z,18.53
2016-03-13T03:20:12.179Z,18.34
2016-03-13T03:21:12.182Z,18.44
2016-03-13T03:22:12.200Z,18.05
2016-03-13T03:23:12.203Z,18.53
2016-03-13T03:24:12.190Z,18.05
2016-03-13T03:25:12.208Z,18.15
2016-03-13T03:26:12.211Z,18.63
2016-03-13T03:27:12.261Z,18.24
2016-03-13T03:28:12.216Z,18.24
2016-03-13T03:29:12.220Z,18.15
2016-03-13T03:30:12.222Z,18.53
2016-03-13T03:31:12.225Z,18.63
2016-03-13T03:32:12.228Z,18.53
2016-03-13T03:33:12.230Z,18.15
2016-03-13T03:34:12.233Z,18.53
2016-03-13T03:35:12.236Z,18.44
2016-03-13T03:36:12.238Z,17.96
2016-03-13T03:37:12.241Z,18.63
2016-03-13T03:38:12.259Z,18.53
2016-03-13T03:39:12.262Z,18.15
2016-03-13T03:40:12.264Z,18.44
2016-03-13T03:41:12.267Z,18.53
2016-03-13T03:42:12.269Z,18.44
2016-03-13T03:43:12.272Z,18.24
2016-03-13T03:44:12.275Z,18.63
2016-03-13T03:45:12.277Z,18.34
2016-03-13T03:46:12.280Z,18.15
2016-03-13T03:47:12.299Z,18.15
2016-03-13T03:48:12.301Z,18.34
2016-03-13T03:49:12.304Z,18.15
2016-03-13T03:50:12.307Z,18.34
2016-03-13T03:51:12.309Z,18.53
2016-03-13T03:52:12.312Z,18.34
2016-03-13T03:53:12.314Z,18.63
2016-03-13T03:54:12.333Z,18.44
2016-03-13T03:55:12.320Z,18.24
2016-03-13T03:56:12.339Z,18.24
2016-03-13T03:57:12.341Z,18.24
2016-03-13T03:58:12.344Z,18.15
2016-03-13T03:59:12.331Z,18.24
2016-03-13T04:00:12.349Z,18.16
2016-03-13T04:01:12.352Z,18.24
2016-03-13T04:02:12.355Z,18.24
2016-03-13T04:03:12.358Z,18.34
2016-03-13T04:04:12.361Z,18.24
2016-03-13T04:05:12.363Z,18.44
2016-03-13T04:06:12.366Z,18.24
2016-03-13T04:07:12.369Z,18.44
2016-03-13T04:08:12.371Z,18.15
2016-03-13T04:09:12.389Z,18.16
2016-03-13T04:10:12.377Z,18.24
2016-03-13T04:11:12.379Z,18.15
2016-03-13T04:12:12.382Z,18.44
2016-03-13T04:13:12.400Z,18.06
2016-03-13T04:14:12.402Z,18.15
2016-03-13T04:15:12.405Z,18.15
2016-03-13T04:16:12.252Z,18.34
2016-03-13T04:17:12.410Z,18.15
2016-03-13T04:18:12.413Z,17.96
2016-03-13T04:19:12.416Z,17.77
2016-03-13T04:20:12.418Z,17.77
2016-03-13T04:21:12.437Z,18.53
2016-03-13T04:22:12.424Z,17.77
2016-03-13T04:23:12.426Z,17.58
2016-03-13T04:24:12.445Z,18.15
2016-03-13T04:25:12.448Z,17.96
2016-03-13T04:26:12.434Z,17.77
2016-03-13T04:27:12.454Z,18.44
2016-03-13T04:28:12.456Z,17.77
2016-03-13T04:29:12.459Z,17.96
2016-03-13T04:30:12.462Z,17.96
2016-03-13T04:31:12.464Z,18.16
2016-03-13T04:32:12.483Z,18.05
2016-03-13T04:33:12.470Z,18.06
2016-03-13T04:34:12.473Z,17.57
2016-03-13T04:35:12.475Z,17.87
2016-03-13T04:36:12.478Z,17.76
2016-03-13T04:37:12.481Z,17.96
2016-03-13T04:38:12.499Z,18.16
2016-03-13T04:39:12.502Z,17.96
2016-03-13T04:40:12.504Z,18.16
2016-03-13T04:41:12.507Z,18.06
2016-03-13T04:42:12.510Z,17.87
2016-03-13T04:43:12.512Z,18.06
2016-03-13T04:44:12.515Z,17.87
2016-03-13T04:45:12.518Z,17.86
2016-03-13T04:46:12.520Z,17.96
2016-03-13T04:47:12.523Z,17.77
2016-03-13T04:48:12.541Z,17.76
2016-03-13T04:49:12.543Z,17.96
2016-03-13T04:50:12.546Z,17.87
2016-03-13T04:51:12.548Z,17.77
2016-03-13T04:52:12.567Z,17.96
2016-03-13T04:53:12.570Z,17.96
2016-03-13T04:54:12.557Z,17.96
2016-03-13T04:55:12.575Z,17.86
2016-03-13T04:56:12.578Z,17.96
2016-03-13T04:57:12.581Z,18.05
2016-03-13T04:58:12.567Z,17.76
2016-03-13T04:59:12.586Z,17.87
2016-03-13T05:00:12.589Z,17.76
2016-03-13T05:01:12.592Z,18.15
2016-03-13T05:02:12.595Z,17.96
2016-03-13T05:03:12.597Z,18.16
2016-03-13T05:04:12.600Z,18.05
2016-03-13T05:05:12.618Z,17.96
2016-03-13T05:06:12.620Z,17.86
2016-03-13T05:07:12.608Z,17.87
2016-03-13T05:08:12.626Z,18.05
2016-03-13T05:09:12.628Z,17.96
2016-03-13T05:10:12.631Z,17.96
2016-03-13T05:11:12.634Z,18.15
2016-03-13T05:12:12.636Z,18.05
2016-03-13T05:13:12.639Z,17.87
2016-03-13T05:14:12.642Z,18.06
2016-03-13T05:15:12.644Z,17.96
2016-03-13T05:16:12.647Z,18.05
2016-03-13T05:17:12.650Z,17.96
2016-03-13T05:18:12.652Z,18.05
2016-03-13T05:19:12.655Z,17.86
2016-03-13T05:20:12.658Z,17.86
2016-03-13T05:21:12.660Z,17.86
2016-03-13T05:22:12.663Z,17.96
2016-03-13T05:23:12.682Z,17.76
2016-03-13T05:24:12.684Z,18.15
2016-03-13T05:25:12.687Z,18.05
2016-03-13T05:26:12.689Z,18.05
2016-03-13T05:27:12.692Z,17.76
2016-03-13T05:28:12.695Z,18.05
2016-03-13T05:29:12.697Z,18.05
2016-03-13T05:30:12.700Z,17.96
2016-03-13T05:31:12.703Z,18.05
2016-03-13T05:32:12.706Z,18.15
2016-03-13T05:33:12.708Z,17.76
2016-03-13T05:34:12.711Z,18.15
2016-03-13T05:35:12.730Z,18.15
2016-03-13T05:36:12.733Z,18.06
2016-03-13T05:37:12.736Z,18.15
2016-03-13T05:38:12.738Z,18.15
2016-03-13T05:39:12.741Z,17.96
2016-03-13T05:40:12.744Z,17.76
2016-03-13T05:41:12.746Z,17.76
2016-03-13T05:42:12.764Z,18.05
2016-03-13T05:43:12.752Z,17.96
2016-03-13T05:44:12.754Z,18.05
2016-03-13T05:45:12.757Z,17.86
2016-03-13T05:46:12.792Z,17.96
2016-03-13T05:47:12.606Z,17.96
2016-03-13T05:48:12.766Z,17.86
2016-03-13T05:49:12.630Z,17.76
2016-03-13T05:50:12.789Z,17.86
2016-03-13T05:51:12.777Z,18.05
2016-03-13T05:52:12.779Z,17.96
2016-03-13T05:53:12.782Z,17.96
2016-03-13T05:54:12.800Z,18.06
2016-03-13T05:55:12.803Z,17.96
2016-03-13T05:56:12.805Z,17.96
2016-03-13T05:57:12.808Z,17.96
2016-03-13T05:58:12.796Z,17.96
2016-03-13T05:59:12.803Z,17.76
2016-03-13T06:00:12.821Z,18.06
2016-03-13T06:01:12.824Z,18.24
2016-03-13T06:02:12.826Z,18.05
2016-03-13T06:03:12.829Z,18.15
2016-03-13T06:04:12.832Z,17.87
2016-03-13T06:05:12.834Z,18.05
2016-03-13T06:06:12.837Z,18.16
2016-03-13T06:07:12.853Z,18.06
2016-03-13T06:08:12.856Z,18.16
2016-03-13T06:09:12.859Z,17.96
2016-03-13T06:10:12.861Z,17.96
2016-03-13T06:11:12.864Z,17.96
2016-03-13T06:12:12.867Z,18.06
2016-03-13T06:13:12.870Z,18.16
2016-03-13T06:14:12.872Z,18.06
2016-03-13T06:15:12.875Z,17.96
2016-03-13T06:16:12.878Z,18.05
2016-03-13T06:17:12.880Z,18.06
2016-03-13T06:18:12.883Z,18.06
2016-03-13T06:19:12.886Z,18.06
2016-03-13T06:20:12.903Z,18.06
2016-03-13T06:21:12.906Z,17.96
2016-03-13T06:22:12.908Z,17.96
2016-03-13T06:23:12.911Z,17.96
2016-03-13T06:24:12.914Z,17.77
2016-03-13T06:25:12.916Z,17.77
2016-03-13T06:26:12.919Z,18.16
2016-03-13T06:27:12.938Z,18.54
2016-03-13T06:28:12.924Z,18.54
2016-03-13T06:29:12.959Z,18.16
2016-03-13T06:30:12.930Z,18.54
2016-03-13T06:31:12.948Z,18.44
2016-03-13T06:32:12.951Z,18.16
2016-03-13T06:33:12.954Z,18.26
2016-03-13T06:34:12.956Z,18.26
2016-03-13T06:35:12.959Z,18.35
2016-03-13T06:36:12.978Z,18.44
2016-03-13T06:37:12.964Z,18.63
2016-03-13T06:38:12.983Z,18.35
2016-03-13T06:39:12.970Z,18.26
2016-03-13T06:40:12.988Z,18.83
2016-03-13T06:41:12.992Z,18.63
2016-03-13T06:42:12.994Z,18.73
2016-03-13T06:43:12.997Z,18.73
2016-03-13T06:44:13.000Z,18.73
2016-03-13T06:45:13.002Z,18.63
2016-03-13T06:46:13.020Z,18.63
2016-03-13T06:47:13.008Z,18.73
2016-03-13T06:48:13.025Z,18.73
2016-03-13T06:49:13.028Z,18.63
2016-03-13T06:50:13.030Z,18.73
2016-03-13T06:51:13.033Z,18.73
2016-03-13T06:52:13.052Z,18.73
2016-03-13T06:53:13.055Z,18.73
2016-03-13T06:54:13.041Z,18.63
2016-03-13T06:55:13.060Z,18.83
2016-03-13T06:56:13.047Z,18.44
2016-03-13T06:57:13.065Z,18.54
2016-03-13T06:58:13.068Z,18.44
2016-03-13T06:59:13.071Z,18.44
2016-03-13T07:00:13.074Z,18.93
2016-03-13T07:01:13.077Z,18.63
2016-03-13T07:02:13.095Z,18.83
2016-03-13T07:03:13.082Z,18.73
2016-03-13T07:04:13.116Z,19.02
2016-03-13T07:05:13.087Z,18.63
2016-03-13T07:06:13.106Z,18.83
2016-03-13T07:07:13.093Z,18.54
2016-03-13T07:08:13.111Z,19.12
2016-03-13T07:09:13.114Z,19.21
2016-03-13T07:10:13.116Z,19.12
2016-03-13T07:11:13.119Z,19.31
2016-03-13T07:12:13.137Z,18.83
2016-03-13T07:13:13.140Z,19.02
2016-03-13T07:14:13.127Z,19.21
2016-03-13T07:15:13.145Z,18.93
2016-03-13T07:16:13.148Z,18.93
2016-03-13T07:17:13.150Z,18.93
2016-03-13T07:18:13.153Z,18.93
2016-03-13T07:19:13.155Z,18.93
2016-03-13T07:20:13.158Z,18.93
2016-03-13T07:21:13.161Z,19.02
2016-03-13T07:22:13.179Z,18.93
2016-03-13T07:23:13.166Z,18.93
2016-03-13T07:24:13.185Z,18.93
2016-03-13T07:25:13.171Z,18.93
2016-03-13T07:26:13.191Z,19.02
2016-03-13T07:27:13.193Z,18.93
2016-03-13T07:28:13.196Z,18.83
2016-03-13T07:29:13.199Z,19.12
2016-03-13T07:30:13.216Z,19.02
2016-03-13T07:31:13.204Z,19.03
2016-03-13T07:32:13.222Z,18.93
2016-03-13T07:33:13.225Z,19.5
2016-03-13T07:34:13.227Z,19.02
2016-03-13T07:35:13.230Z,19.6
2016-03-13T07:36:13.232Z,19.7
2016-03-13T07:37:13.235Z,19.6
2016-03-13T07:38:13.238Z,19.12
2016-03-13T07:39:13.256Z,19.5
2016-03-13T07:40:13.259Z,19.4
2016-03-13T07:41:13.262Z,19.02
2016-03-13T07:42:13.264Z,19.5
2016-03-13T07:43:13.314Z,19.6
2016-03-13T07:44:13.269Z,19.6
2016-03-13T07:45:13.288Z,19.12
2016-03-13T07:46:13.275Z,19.6
2016-03-13T07:47:13.293Z,19.5
2016-03-13T07:48:13.280Z,19.4
2016-03-13T07:49:13.299Z,19.4
2016-03-13T07:50:13.302Z,18.93
2016-03-13T07:51:13.305Z,18.93
2016-03-13T07:52:13.308Z,18.93
2016-03-13T07:53:13.310Z,19.6
2016-03-13T07:54:13.328Z,19.7
2016-03-13T07:55:13.331Z,19.5
2016-03-13T07:56:13.333Z,19.4
2016-03-13T07:57:13.336Z,19.6
2016-03-13T07:58:13.338Z,19.7
2016-03-13T07:59:13.341Z,19.5
2016-03-13T08:00:13.344Z,19.42
2016-03-13T08:01:13.362Z,19.51
2016-03-13T08:02:13.365Z,19.13
2016-03-13T08:03:13.368Z,19.9
2016-03-13T08:04:13.371Z,20.37
2016-03-13T08:05:13.374Z,19.79
2016-03-13T08:06:13.392Z,20.17
2016-03-13T08:07:13.379Z,19.98
2016-03-13T08:08:13.397Z,19.79
2016-03-13T08:09:13.384Z,19.9
2016-03-13T08:10:13.403Z,19.61
2016-03-13T08:11:13.405Z,19.61
2016-03-13T08:12:13.408Z,19.8
2016-03-13T08:13:13.411Z,19.61
2016-03-13T08:14:13.429Z,20.47
2016-03-13T08:15:13.416Z,20
2016-03-13T08:16:13.419Z,20.57
2016-03-13T08:17:13.437Z,20.57
2016-03-13T08:18:13.439Z,20.38
2016-03-13T08:19:13.442Z,20.67
2016-03-13T08:20:13.445Z,20.67
2016-03-13T08:21:13.447Z,20.09
2016-03-13T08:22:13.450Z,20.67
2016-03-13T08:23:13.452Z,20.28
2016-03-13T08:24:13.455Z,19.8
2016-03-13T08:25:13.474Z,18.85
2016-03-13T08:26:13.460Z,18.38
2016-03-13T08:27:13.495Z,17.61
2016-03-13T08:28:13.482Z,16.66
2016-03-13T08:29:13.500Z,16.47
2016-03-13T08:30:13.488Z,15.8
2016-03-13T08:31:13.521Z,15.42
2016-03-13T08:32:13.508Z,15.52
2016-03-13T08:33:13.526Z,15.91
2016-03-13T08:34:13.529Z,15.63
2016-03-13T08:35:13.531Z,15.62
2016-03-13T08:36:13.537Z,15.53
2016-03-13T08:37:13.525Z,16.19
2016-03-13T08:38:13.530Z,16.47
2016-03-13T08:39:13.518Z,16.19
2016-03-13T08:40:13.539Z,16.57
2016-03-13T08:41:13.521Z,17.82
2016-03-13T08:42:13.535Z,18.48
2016-03-13T08:43:13.516Z,19.13
2016-03-13T08:44:13.530Z,19.43
2016-03-13T08:45:13.532Z,19.7
2016-03-13T08:46:13.549Z,19.9
2016-03-13T08:47:13.534Z,19.7
2016-03-13T08:48:13.550Z,19.61
2016-03-13T08:49:13.551Z,20.18
2016-03-13T08:50:13.568Z,20
2016-03-13T08:51:13.554Z,20.09
2016-03-13T08:52:13.571Z,20.17
2016-03-13T08:53:13.574Z,20.27
2016-03-13T08:54:13.575Z,20.37
2016-03-13T08:55:13.577Z,20.47
2016-03-13T08:56:13.579Z,20.47
2016-03-13T08:57:13.581Z,20.09
2016-03-13T08:58:13.584Z,20.28
2016-03-13T08:59:13.602Z,20.18
2016-03-13T09:00:13.604Z,20.17
2016-03-13T09:01:13.606Z,20.47
2016-03-13T09:02:13.609Z,20.09
2016-03-13T09:03:13.612Z,20.28
2016-03-13T09:04:13.615Z,20.47
2016-03-13T09:05:13.634Z,20.38
2016-03-13T09:06:13.464Z,19.7
2016-03-13T09:07:13.646Z,19.8
2016-03-13T09:08:13.648Z,19.61
2016-03-13T09:09:13.651Z,19.61
2016-03-13T09:10:13.495Z,17.21
2016-03-13T09:11:13.654Z,14.73
2016-03-13T09:12:13.656Z,14.67
2016-03-13T09:13:13.674Z,13.8
2016-03-13T09:14:13.677Z,13.81
2016-03-13T09:15:13.679Z,14.39
2016-03-13T09:16:13.698Z,14.57
2016-03-13T09:17:13.701Z,14.75
2016-03-13T09:18:13.720Z,13.98
2016-03-13T09:19:13.722Z,12.94
2016-03-13T09:20:13.725Z,12.46
2016-03-13T09:21:13.758Z,12.28
2016-03-13T09:22:13.746Z,12.47
2016-03-13T09:23:13.764Z,12.37
2016-03-13T09:24:13.767Z,12.18
2016-03-13T09:25:13.785Z,12.28
2016-03-13T09:26:13.772Z,12.47
2016-03-13T09:27:13.790Z,13.34
2016-03-13T09:28:13.793Z,13.23
2016-03-13T09:29:13.796Z,13.81
2016-03-13T09:30:13.814Z,13.8
2016-03-13T09:31:13.817Z,14.86
2016-03-13T09:32:13.835Z,15.91
2016-03-13T09:33:13.822Z,16.57
2016-03-13T09:34:13.841Z,17.52
2016-03-13T09:35:13.843Z,18
2016-03-13T09:36:13.846Z,18.28
2016-03-13T09:37:13.849Z,18.66
2016-03-13T09:38:13.866Z,18.75
2016-03-13T09:39:13.869Z,18.66
2016-03-13T09:40:13.872Z,19.13
2016-03-13T09:41:13.875Z,19.43
2016-03-13T09:42:13.893Z,19.52
2016-03-13T09:43:13.896Z,19.42
2016-03-13T09:44:13.899Z,19.7
2016-03-13T09:45:13.917Z,19.7
2016-03-13T09:46:13.904Z,19.7
2016-03-13T09:47:13.923Z,19.9
2016-03-13T09:48:13.926Z,19.9
2016-03-13T09:49:13.943Z,20.18
2016-03-13T09:50:13.931Z,20.38
2016-03-13T09:51:13.948Z,20.38
2016-03-13T09:52:13.936Z,20.28
2016-03-13T09:53:13.953Z,20.28
2016-03-13T09:54:13.957Z,20
2016-03-13T09:55:13.959Z,20
2016-03-13T09:56:13.962Z,20.28
2016-03-13T09:57:13.981Z,20.09
2016-03-13T09:58:13.983Z,20
2016-03-13T09:59:13.986Z,19.7
2016-03-13T10:00:14.005Z,19.9
2016-03-13T10:01:13.991Z,19.61
2016-03-13T10:02:14.010Z,19.8
2016-03-13T10:03:13.996Z,19.8
2016-03-13T10:04:14.015Z,19.9
2016-03-13T10:05:14.018Z,19.7
2016-03-13T10:06:14.036Z,19.7
2016-03-13T10:07:14.024Z,19.7
2016-03-13T10:08:14.041Z,19.9
2016-03-13T10:09:14.029Z,19.7
2016-03-13T10:10:14.046Z,19.8
2016-03-13T10:11:14.049Z,19.79
2016-03-13T10:12:14.052Z,19.79
2016-03-13T10:13:14.055Z,20
2016-03-13T10:14:14.057Z,19.9
2016-03-13T10:15:14.091Z,19.9
2016-03-13T10:16:14.079Z,19.98
2016-03-13T10:17:14.096Z,19.89
2016-03-13T10:18:14.084Z,19.6
2016-03-13T10:19:14.101Z,19.7
2016-03-13T10:20:14.089Z,19.79
2016-03-13T10:21:14.092Z,19.89
2016-03-13T10:22:14.109Z,19.6
2016-03-13T10:23:14.112Z,19.89
2016-03-13T10:24:14.115Z,19.7
2016-03-13T10:25:14.134Z,20.27
2016-03-13T10:26:14.121Z,20.08
2016-03-13T10:27:14.139Z,19.6
2016-03-13T10:28:14.142Z,20.17
2016-03-13T10:29:14.144Z,20.08
2016-03-13T10:30:14.178Z,19.6
2016-03-13T10:31:14.150Z,19.6
2016-03-13T10:32:14.168Z,19.12
2016-03-13T10:33:14.171Z,19.98
2016-03-13T10:34:14.174Z,19.6
2016-03-13T10:35:14.177Z,19.89
2016-03-13T10:36:14.194Z,19.98
2016-03-13T10:37:14.182Z,19.6
2016-03-13T10:38:14.184Z,19.7
2016-03-13T10:39:14.202Z,19.7
2016-03-13T10:40:14.205Z,19.7
2016-03-13T10:41:14.208Z,19.6
2016-03-13T10:42:14.211Z,19.8
2016-03-13T10:43:14.213Z,19.6
2016-03-13T10:44:14.216Z,19.6
2016-03-13T10:45:14.235Z,19.6
2016-03-13T10:46:14.221Z,19.5
2016-03-13T10:47:14.271Z,19.6
2016-03-13T10:48:14.227Z,20.08
2016-03-13T10:49:14.245Z,19.31
2016-03-13T10:50:14.248Z,19.4
2016-03-13T10:51:14.250Z,19.89
2016-03-13T10:52:14.269Z,19.7
2016-03-13T10:53:14.256Z,19.7
2016-03-13T10:54:14.275Z,19.6
2016-03-13T10:55:14.278Z,19.6
2016-03-13T10:56:14.295Z,19.7
2016-03-13T10:57:14.283Z,19.7
2016-03-13T10:58:14.301Z,19.7
2016-03-13T10:59:14.289Z,19.7
2016-03-13T11:00:14.322Z,19.7
2016-03-13T11:01:14.293Z,19.7
2016-03-13T11:02:14.311Z,19.4
2016-03-13T11:03:14.299Z,19.79
2016-03-13T11:04:14.317Z,19.6
2016-03-13T11:05:14.335Z,19.89
2016-03-13T11:06:14.338Z,19.4
2016-03-13T11:07:14.325Z,19.79
2016-03-13T11:08:14.343Z,19.7
2016-03-13T11:09:14.330Z,19.4
2016-03-13T11:10:14.349Z,19.6
2016-03-13T11:11:14.351Z,19.89
2016-03-13T11:12:14.369Z,19.4
2016-03-13T11:13:14.372Z,19.4
2016-03-13T11:14:14.374Z,19.79
2016-03-13T11:15:14.362Z,19.6
2016-03-13T11:16:14.364Z,19.31
2016-03-13T11:17:14.382Z,19.6
2016-03-13T11:18:14.370Z,18.93
2016-03-13T11:19:14.388Z,19.5
2016-03-13T11:20:14.407Z,18.93
2016-03-13T11:21:14.410Z,18.93
2016-03-13T11:22:14.412Z,18.93
2016-03-13T11:23:14.415Z,18.93
2016-03-13T11:24:14.401Z,18.93
2016-03-13T11:25:14.420Z,18.93
2016-03-13T11:26:14.423Z,18.93
2016-03-13T11:27:14.425Z,18.83
2016-03-13T11:28:14.428Z,18.93
2016-03-13T11:29:14.431Z,19.03
2016-03-13T11:30:14.433Z,19.02
2016-03-13T11:31:14.436Z,19.03
2016-03-13T11:32:14.455Z,18.93
2016-03-13T11:33:14.442Z,18.93
2016-03-13T11:34:14.461Z,18.93
2016-03-13T11:35:14.463Z,19.12
2016-03-13T11:36:14.481Z,18.93
2016-03-13T11:37:14.484Z,18.83
2016-03-13T11:38:14.472Z,19.02
2016-03-13T11:39:14.317Z,18.84
2016-03-13T11:40:14.492Z,18.93
2016-03-13T11:41:14.495Z,18.93
2016-03-13T11:42:14.497Z,19.02
2016-03-13T11:43:14.500Z,18.93
2016-03-13T11:44:14.503Z,18.93
2016-03-13T11:45:14.505Z,19.12
2016-03-13T11:46:14.508Z,19.32
2016-03-13T11:47:14.510Z,19.21
2016-03-13T11:48:14.529Z,18.93
2016-03-13T11:49:14.532Z,19.21
2016-03-13T11:50:14.534Z,19.13
2016-03-13T11:51:14.537Z,19.02
2016-03-13T11:52:14.540Z,19.31
2016-03-13T11:53:14.543Z,19.31
2016-03-13T11:54:14.561Z,19.31
2016-03-13T11:55:14.564Z,18.93
2016-03-13T11:56:14.567Z,19.21
2016-03-13T11:57:14.569Z,19.21
2016-03-13T11:58:14.587Z,19.12
2016-03-13T11:59:14.575Z,19.02
2016-03-13T12:00:14.592Z,18.93
2016-03-13T12:01:14.596Z,18.93
2016-03-13T12:02:14.584Z,19.21
2016-03-13T12:03:14.601Z,19.31
2016-03-13T12:04:14.589Z,19.02
2016-03-13T12:05:14.607Z,18.93
2016-03-13T12:06:14.609Z,18.93
2016-03-13T12:07:14.612Z,19.02
2016-03-13T12:08:14.614Z,19.31
2016-03-13T12:09:14.633Z,19.12
2016-03-13T12:10:14.619Z,19.02
2016-03-13T12:11:14.638Z,19.12
2016-03-13T12:12:14.641Z,19.02
2016-03-13T12:13:14.628Z,19.02
2016-03-13T12:14:14.647Z,19.12
2016-03-13T12:15:14.649Z,18.93
2016-03-13T12:16:14.652Z,18.93
2016-03-13T12:17:14.654Z,18.93
2016-03-13T12:18:14.672Z,18.93
2016-03-13T12:19:14.675Z,19.02
2016-03-13T12:20:14.678Z,19.02
2016-03-13T12:21:14.680Z,19.02
2016-03-13T12:22:14.683Z,18.73
2016-03-13T12:23:14.686Z,19.12
2016-03-13T12:24:14.689Z,18.93
2016-03-13T12:25:14.691Z,18.93
2016-03-13T12:26:14.710Z,18.93
2016-03-13T12:27:14.696Z,18.93
2016-03-13T12:28:14.715Z,18.93
2016-03-13T12:29:14.734Z,18.93
2016-03-13T12:30:14.720Z,18.83
2016-03-13T12:31:15.193Z,18.93
2016-03-13T12:32:14.726Z,18.83
2016-03-13T12:33:14.745Z,18.83
2016-03-13T12:34:14.732Z,19.02
2016-03-13T12:35:14.734Z,18.83
2016-03-13T12:36:14.753Z,18.93
2016-03-13T12:37:14.755Z,18.83
2016-03-13T12:38:14.758Z,18.93
2016-03-13T12:39:14.761Z,19.02
2016-03-13T12:40:14.763Z,18.93
2016-03-13T12:41:14.781Z,18.93
2016-03-13T12:42:14.784Z,18.83
2016-03-13T12:43:14.787Z,18.83
2016-03-13T12:44:14.836Z,18.83
2016-03-13T12:45:14.792Z,18.93
2016-03-13T12:46:14.811Z,18.93
2016-03-13T12:47:14.797Z,19.12
2016-03-13T12:48:14.800Z,19.6
2016-03-13T12:49:14.802Z,19.5
2016-03-13T12:50:14.806Z,18.93
2016-03-13T12:51:14.824Z,18.93
2016-03-13T12:52:14.810Z,19.02
2016-03-13T12:53:14.830Z,19.6
2016-03-13T12:54:14.832Z,19.4
2016-03-13T12:55:14.851Z,19.31
2016-03-13T12:56:14.838Z,18.93